sensor_id;sensor_type;location;lat;lon;timestamp;pressure;altitude;pressure_sealevel;temperature
38114;BMP180;23926;53.222;6.354;2022-08-14T00:01:07;101379.00;;;24.40
38114;BMP180;23926;53.222;6.354;2022-08-14T00:03:32;101374.00;;;24.40
38114;BMP180;23926;53.222;6.354;2022-08-14T00:06:00;101376.00;;;24.30
38114;BMP180;23926;53.222;6.354;2022-08-14T00:08:26;101365.00;;;24.30
38114;BMP180;23926;53.222;6.354;2022-08-14T00:10:51;101371.00;;;24.30
38114;BMP180;23926;53.222;6.354;2022-08-14T00:13:19;101369.00;;;24.30
38114;BMP180;23926;53.222;6.354;2022-08-14T00:15:47;101372.00;;;24.30
38114;BMP180;23926;53.222;6.354;2022-08-14T00:18:17;101372.00;;;24.30
38114;BMP180;23926;53.222;6.354;2022-08-14T00:20:44;101359.00;;;24.20
38114;BMP180;23926;53.222;6.354;2022-08-14T00:23:11;101361.00;;;24.20
38114;BMP180;23926;53.222;6.354;2022-08-14T00:25:37;101352.00;;;24.10
38114;BMP180;23926;53.222;6.354;2022-08-14T00:28:04;101363.00;;;24.10
38114;BMP180;23926;53.222;6.354;2022-08-14T00:30:31;101345.00;;;24.10
38114;BMP180;23926;53.222;6.354;2022-08-14T00:32:57;101345.00;;;24.10
38114;BMP180;23926;53.222;6.354;2022-08-14T00:35:22;101348.00;;;24.10
38114;BMP180;23926;53.222;6.354;2022-08-14T00:37:48;101338.00;;;24.00
38114;BMP180;23926;53.222;6.354;2022-08-14T00:40:16;101337.00;;;24.00
38114;BMP180;23926;53.222;6.354;2022-08-14T00:42:42;101346.00;;;23.90
38114;BMP180;23926;53.222;6.354;2022-08-14T00:45:10;101329.00;;;23.90
38114;BMP180;23926;53.222;6.354;2022-08-14T00:47:36;101328.00;;;23.80
38114;BMP180;23926;53.222;6.354;2022-08-14T00:50:05;101330.00;;;23.80
38114;BMP180;23926;53.222;6.354;2022-08-14T00:52:31;101323.00;;;23.80
38114;BMP180;23926;53.222;6.354;2022-08-14T00:54:57;101316.00;;;23.70
38114;BMP180;23926;53.222;6.354;2022-08-14T00:57:28;101312.00;;;23.70
38114;BMP180;23926;53.222;6.354;2022-08-14T00:59:54;101320.00;;;23.70
38114;BMP180;23926;53.222;6.354;2022-08-14T01:02:22;101324.00;;;23.70
38114;BMP180;23926;53.222;6.354;2022-08-14T01:04:52;101310.00;;;23.70
38114;BMP180;23926;53.222;6.354;2022-08-14T01:07:19;101315.00;;;23.60
38114;BMP180;23926;53.222;6.354;2022-08-14T01:09:52;101308.00;;;23.60
38114;BMP180;23926;53.222;6.354;2022-08-14T01:12:18;101309.00;;;23.50
38114;BMP180;23926;53.222;6.354;2022-08-14T01:14:44;101306.00;;;23.50
38114;BMP180;23926;53.222;6.354;2022-08-14T01:17:11;101296.00;;;23.50
38114;BMP180;23926;53.222;6.354;2022-08-14T01:19:36;101293.00;;;23.50
38114;BMP180;23926;53.222;6.354;2022-08-14T01:22:20;101296.00;;;23.40
38114;BMP180;23926;53.222;6.354;2022-08-14T01:24:46;101299.00;;;23.40
38114;BMP180;23926;53.222;6.354;2022-08-14T01:27:20;101298.00;;;23.40
38114;BMP180;23926;53.222;6.354;2022-08-14T01:29:47;101296.00;;;23.40
38114;BMP180;23926;53.222;6.354;2022-08-14T01:32:15;101296.00;;;23.30
38114;BMP180;23926;53.222;6.354;2022-08-14T01:34:42;101304.00;;;23.30
38114;BMP180;23926;53.222;6.354;2022-08-14T01:37:08;101297.00;;;23.30
38114;BMP180;23926;53.222;6.354;2022-08-14T01:39:35;101303.00;;;23.20
38114;BMP180;23926;53.222;6.354;2022-08-14T01:42:00;101297.00;;;23.20
38114;BMP180;23926;53.222;6.354;2022-08-14T01:44:28;101286.00;;;23.20
38114;BMP180;23926;53.222;6.354;2022-08-14T01:46:57;101285.00;;;23.10
38114;BMP180;23926;53.222;6.354;2022-08-14T01:49:23;101277.00;;;23.10
38114;BMP180;23926;53.222;6.354;2022-08-14T01:51:49;101279.00;;;23.10
38114;BMP180;23926;53.222;6.354;2022-08-14T01:54:23;101278.00;;;23.10
38114;BMP180;23926;53.222;6.354;2022-08-14T01:56:54;101266.00;;;23.00
38114;BMP180;23926;53.222;6.354;2022-08-14T01:59:31;101256.00;;;23.00
38114;BMP180;23926;53.222;6.354;2022-08-14T02:01:59;101267.00;;;23.00
38114;BMP180;23926;53.222;6.354;2022-08-14T02:04:34;101262.00;;;23.00
38114;BMP180;23926;53.222;6.354;2022-08-14T02:07:01;101250.00;;;23.00
38114;BMP180;23926;53.222;6.354;2022-08-14T02:09:28;101258.00;;;23.00
38114;BMP180;23926;53.222;6.354;2022-08-14T02:12:00;101260.00;;;23.00
38114;BMP180;23926;53.222;6.354;2022-08-14T02:14:26;101255.00;;;23.00
38114;BMP180;23926;53.222;6.354;2022-08-14T02:16:52;101258.00;;;23.00
38114;BMP180;23926;53.222;6.354;2022-08-14T02:19:20;101245.00;;;23.00
38114;BMP180;23926;53.222;6.354;2022-08-14T02:21:48;101237.00;;;22.90
38114;BMP180;23926;53.222;6.354;2022-08-14T02:24:15;101234.00;;;22.90
38114;BMP180;23926;53.222;6.354;2022-08-14T02:26:43;101245.00;;;23.00
38114;BMP180;23926;53.222;6.354;2022-08-14T02:29:16;101240.00;;;22.90
38114;BMP180;23926;53.222;6.354;2022-08-14T02:31:45;101234.00;;;22.90
38114;BMP180;23926;53.222;6.354;2022-08-14T02:34:20;101229.00;;;23.00
38114;BMP180;23926;53.222;6.354;2022-08-14T02:36:48;101226.00;;;22.90
38114;BMP180;23926;53.222;6.354;2022-08-14T02:39:15;101232.00;;;22.90
38114;BMP180;23926;53.222;6.354;2022-08-14T02:41:41;101223.00;;;23.00
38114;BMP180;23926;53.222;6.354;2022-08-14T02:44:10;101220.00;;;23.00
38114;BMP180;23926;53.222;6.354;2022-08-14T02:46:40;101225.00;;;23.00
38114;BMP180;23926;53.222;6.354;2022-08-14T02:49:08;101215.00;;;22.90
38114;BMP180;23926;53.222;6.354;2022-08-14T02:51:35;101218.00;;;23.00
38114;BMP180;23926;53.222;6.354;2022-08-14T02:54:02;101216.00;;;23.00
38114;BMP180;23926;53.222;6.354;2022-08-14T02:56:27;101208.00;;;23.00
38114;BMP180;23926;53.222;6.354;2022-08-14T02:58:55;101211.00;;;23.00
38114;BMP180;23926;53.222;6.354;2022-08-14T03:01:23;101205.00;;;23.00
38114;BMP180;23926;53.222;6.354;2022-08-14T03:03:49;101199.00;;;22.90
38114;BMP180;23926;53.222;6.354;2022-08-14T03:06:17;101197.00;;;22.90
38114;BMP180;23926;53.222;6.354;2022-08-14T03:08:44;101194.00;;;22.80
38114;BMP180;23926;53.222;6.354;2022-08-14T03:11:11;101188.00;;;22.80
38114;BMP180;23926;53.222;6.354;2022-08-14T03:13:46;101187.00;;;22.80
38114;BMP180;23926;53.222;6.354;2022-08-14T03:16:14;101187.00;;;22.80
38114;BMP180;23926;53.222;6.354;2022-08-14T03:18:42;101182.00;;;22.80
38114;BMP180;23926;53.222;6.354;2022-08-14T03:21:11;101183.00;;;22.80
38114;BMP180;23926;53.222;6.354;2022-08-14T03:23:41;101188.00;;;22.80
38114;BMP180;23926;53.222;6.354;2022-08-14T03:26:12;101189.00;;;22.80
38114;BMP180;23926;53.222;6.354;2022-08-14T03:28:40;101188.00;;;22.80
38114;BMP180;23926;53.222;6.354;2022-08-14T03:31:07;101179.00;;;22.80
38114;BMP180;23926;53.222;6.354;2022-08-14T03:33:33;101180.00;;;22.80
38114;BMP180;23926;53.222;6.354;2022-08-14T03:36:02;101171.00;;;22.80
38114;BMP180;23926;53.222;6.354;2022-08-14T03:38:29;101175.00;;;22.80
38114;BMP180;23926;53.222;6.354;2022-08-14T03:40:54;101171.00;;;22.80
38114;BMP180;23926;53.222;6.354;2022-08-14T03:43:20;101164.00;;;22.70
38114;BMP180;23926;53.222;6.354;2022-08-14T03:45:45;101166.00;;;22.70
38114;BMP180;23926;53.222;6.354;2022-08-14T03:48:13;101167.00;;;22.70
38114;BMP180;23926;53.222;6.354;2022-08-14T03:50:49;101163.00;;;22.70
38114;BMP180;23926;53.222;6.354;2022-08-14T03:53:18;101155.00;;;22.70
38114;BMP180;23926;53.222;6.354;2022-08-14T03:55:44;101151.00;;;22.70
38114;BMP180;23926;53.222;6.354;2022-08-14T03:58:09;101146.00;;;22.70
38114;BMP180;23926;53.222;6.354;2022-08-14T04:00:36;101150.00;;;22.70
38114;BMP180;23926;53.222;6.354;2022-08-14T04:03:06;101149.00;;;22.60
38114;BMP180;23926;53.222;6.354;2022-08-14T04:05:31;101149.00;;;22.60
38114;BMP180;23926;53.222;6.354;2022-08-14T04:07:58;101156.00;;;22.60
38114;BMP180;23926;53.222;6.354;2022-08-14T04:10:23;101153.00;;;22.60
38114;BMP180;23926;53.222;6.354;2022-08-14T04:12:49;101144.00;;;22.60
38114;BMP180;23926;53.222;6.354;2022-08-14T04:15:15;101141.00;;;22.50
38114;BMP180;23926;53.222;6.354;2022-08-14T04:17:45;101144.00;;;22.50
38114;BMP180;23926;53.222;6.354;2022-08-14T04:20:11;101143.00;;;22.50
38114;BMP180;23926;53.222;6.354;2022-08-14T04:22:37;101155.00;;;22.50
38114;BMP180;23926;53.222;6.354;2022-08-14T04:25:06;101150.00;;;22.50
38114;BMP180;23926;53.222;6.354;2022-08-14T04:27:32;101144.00;;;22.50
38114;BMP180;23926;53.222;6.354;2022-08-14T04:30:00;101147.00;;;22.40
38114;BMP180;23926;53.222;6.354;2022-08-14T04:32:26;101149.00;;;22.40
38114;BMP180;23926;53.222;6.354;2022-08-14T04:34:52;101141.00;;;22.50
38114;BMP180;23926;53.222;6.354;2022-08-14T04:37:23;101135.00;;;22.50
38114;BMP180;23926;53.222;6.354;2022-08-14T04:40:07;101136.00;;;22.40
38114;BMP180;23926;53.222;6.354;2022-08-14T04:42:52;101141.00;;;22.40
38114;BMP180;23926;53.222;6.354;2022-08-14T04:45:37;101143.00;;;22.40
38114;BMP180;23926;53.222;6.354;2022-08-14T04:48:13;101147.00;;;22.40
38114;BMP180;23926;53.222;6.354;2022-08-14T04:50:46;101147.00;;;22.30
38114;BMP180;23926;53.222;6.354;2022-08-14T04:53:14;101142.00;;;22.30
38114;BMP180;23926;53.222;6.354;2022-08-14T04:55:43;101138.00;;;22.30
38114;BMP180;23926;53.222;6.354;2022-08-14T04:58:12;101143.00;;;22.20
38114;BMP180;23926;53.222;6.354;2022-08-14T05:00:37;101143.00;;;22.20
38114;BMP180;23926;53.222;6.354;2022-08-14T05:03:04;101148.00;;;22.20
38114;BMP180;23926;53.222;6.354;2022-08-14T05:05:30;101141.00;;;22.30
38114;BMP180;23926;53.222;6.354;2022-08-14T05:08:03;101145.00;;;22.30
38114;BMP180;23926;53.222;6.354;2022-08-14T05:10:35;101135.00;;;22.40
38114;BMP180;23926;53.222;6.354;2022-08-14T05:13:00;101128.00;;;22.40
38114;BMP180;23926;53.222;6.354;2022-08-14T05:15:26;101128.00;;;22.40
38114;BMP180;23926;53.222;6.354;2022-08-14T05:17:54;101131.00;;;22.50
38114;BMP180;23926;53.222;6.354;2022-08-14T05:20:19;101134.00;;;22.50
38114;BMP180;23926;53.222;6.354;2022-08-14T05:22:45;101126.00;;;22.60
38114;BMP180;23926;53.222;6.354;2022-08-14T05:25:10;101141.00;;;22.60
38114;BMP180;23926;53.222;6.354;2022-08-14T05:27:36;101132.00;;;22.70
38114;BMP180;23926;53.222;6.354;2022-08-14T05:30:06;101126.00;;;22.80
38114;BMP180;23926;53.222;6.354;2022-08-14T05:32:32;101123.00;;;23.00
38114;BMP180;23926;53.222;6.354;2022-08-14T05:34:58;101131.00;;;23.10
38114;BMP180;23926;53.222;6.354;2022-08-14T05:37:24;101121.00;;;23.20
38114;BMP180;23926;53.222;6.354;2022-08-14T05:39:51;101116.00;;;23.30
38114;BMP180;23926;53.222;6.354;2022-08-14T05:42:16;101124.00;;;23.30
38114;BMP180;23926;53.222;6.354;2022-08-14T05:44:42;101126.00;;;23.40
38114;BMP180;23926;53.222;6.354;2022-08-14T05:47:07;101118.00;;;23.50
38114;BMP180;23926;53.222;6.354;2022-08-14T05:49:33;101123.00;;;23.50
38114;BMP180;23926;53.222;6.354;2022-08-14T05:51:58;101116.00;;;23.60
38114;BMP180;23926;53.222;6.354;2022-08-14T05:54:23;101116.00;;;23.70
38114;BMP180;23926;53.222;6.354;2022-08-14T05:56:49;101115.00;;;23.80
38114;BMP180;23926;53.222;6.354;2022-08-14T05:59:14;101126.00;;;23.80
38114;BMP180;23926;53.222;6.354;2022-08-14T06:01:40;101115.00;;;23.90
38114;BMP180;23926;53.222;6.354;2022-08-14T06:04:05;101106.00;;;23.90
38114;BMP180;23926;53.222;6.354;2022-08-14T06:06:31;101109.00;;;24.00
38114;BMP180;23926;53.222;6.354;2022-08-14T06:08:56;101102.00;;;24.10
38114;BMP180;23926;53.222;6.354;2022-08-14T06:11:21;101112.00;;;24.10
38114;BMP180;23926;53.222;6.354;2022-08-14T06:13:47;101108.00;;;24.30
38114;BMP180;23926;53.222;6.354;2022-08-14T06:16:16;101119.00;;;24.30
38114;BMP180;23926;53.222;6.354;2022-08-14T06:18:41;101116.00;;;24.50
38114;BMP180;23926;53.222;6.354;2022-08-14T06:21:07;101111.00;;;24.60
38114;BMP180;23926;53.222;6.354;2022-08-14T06:23:32;101117.00;;;24.60
38114;BMP180;23926;53.222;6.354;2022-08-14T06:25:58;101110.00;;;24.80
38114;BMP180;23926;53.222;6.354;2022-08-14T06:28:25;101101.00;;;24.80
38114;BMP180;23926;53.222;6.354;2022-08-14T06:30:51;101105.00;;;25.00
38114;BMP180;23926;53.222;6.354;2022-08-14T06:33:18;101108.00;;;25.00
38114;BMP180;23926;53.222;6.354;2022-08-14T06:35:44;101093.00;;;25.10
38114;BMP180;23926;53.222;6.354;2022-08-14T06:38:14;101086.00;;;25.10
38114;BMP180;23926;53.222;6.354;2022-08-14T06:40:41;101084.00;;;25.10
38114;BMP180;23926;53.222;6.354;2022-08-14T06:43:08;101087.00;;;25.00
38114;BMP180;23926;53.222;6.354;2022-08-14T06:45:36;101077.00;;;25.10
38114;BMP180;23926;53.222;6.354;2022-08-14T06:48:03;101077.00;;;25.20
38114;BMP180;23926;53.222;6.354;2022-08-14T06:50:29;101069.00;;;25.40
38114;BMP180;23926;53.222;6.354;2022-08-14T06:52:58;101071.00;;;25.60
38114;BMP180;23926;53.222;6.354;2022-08-14T06:55:24;101077.00;;;25.80
38114;BMP180;23926;53.222;6.354;2022-08-14T06:57:50;101085.00;;;25.90
38114;BMP180;23926;53.222;6.354;2022-08-14T07:00:19;101077.00;;;26.00
38114;BMP180;23926;53.222;6.354;2022-08-14T07:02:45;101075.00;;;26.10
38114;BMP180;23926;53.222;6.354;2022-08-14T07:05:31;101091.00;;;26.20
38114;BMP180;23926;53.222;6.354;2022-08-14T07:08:24;101083.00;;;26.30
38114;BMP180;23926;53.222;6.354;2022-08-14T07:10:55;101081.00;;;26.40
38114;BMP180;23926;53.222;6.354;2022-08-14T07:13:23;101084.00;;;26.60
38114;BMP180;23926;53.222;6.354;2022-08-14T07:15:53;101082.00;;;26.70
38114;BMP180;23926;53.222;6.354;2022-08-14T07:18:27;101088.00;;;26.80
38114;BMP180;23926;53.222;6.354;2022-08-14T07:20:53;101082.00;;;27.00
38114;BMP180;23926;53.222;6.354;2022-08-14T07:23:20;101082.00;;;27.00
38114;BMP180;23926;53.222;6.354;2022-08-14T07:25:49;101080.00;;;27.10
38114;BMP180;23926;53.222;6.354;2022-08-14T07:28:17;101083.00;;;27.20
38114;BMP180;23926;53.222;6.354;2022-08-14T07:30:43;101094.00;;;27.40
38114;BMP180;23926;53.222;6.354;2022-08-14T07:33:09;101085.00;;;27.50
38114;BMP180;23926;53.222;6.354;2022-08-14T07:35:37;101091.00;;;27.70
38114;BMP180;23926;53.222;6.354;2022-08-14T07:38:04;101088.00;;;27.70
38114;BMP180;23926;53.222;6.354;2022-08-14T07:40:31;101085.00;;;27.90
38114;BMP180;23926;53.222;6.354;2022-08-14T07:42:57;101090.00;;;28.00
38114;BMP180;23926;53.222;6.354;2022-08-14T07:45:22;101083.00;;;28.10
38114;BMP180;23926;53.222;6.354;2022-08-14T07:47:48;101092.00;;;28.20
38114;BMP180;23926;53.222;6.354;2022-08-14T07:50:15;101087.00;;;28.30
38114;BMP180;23926;53.222;6.354;2022-08-14T07:52:42;101083.00;;;28.40
38114;BMP180;23926;53.222;6.354;2022-08-14T07:55:09;101089.00;;;28.40
38114;BMP180;23926;53.222;6.354;2022-08-14T07:57:35;101082.00;;;28.50
38114;BMP180;23926;53.222;6.354;2022-08-14T08:00:07;101080.00;;;28.60
38114;BMP180;23926;53.222;6.354;2022-08-14T08:02:35;101076.00;;;28.60
38114;BMP180;23926;53.222;6.354;2022-08-14T08:05:06;101075.00;;;28.80
38114;BMP180;23926;53.222;6.354;2022-08-14T08:07:33;101080.00;;;28.90
38114;BMP180;23926;53.222;6.354;2022-08-14T08:10:04;101066.00;;;28.90
38114;BMP180;23926;53.222;6.354;2022-08-14T08:12:51;101071.00;;;29.00
38114;BMP180;23926;53.222;6.354;2022-08-14T08:15:18;101063.00;;;29.10
38114;BMP180;23926;53.222;6.354;2022-08-14T08:17:43;101067.00;;;29.20
38114;BMP180;23926;53.222;6.354;2022-08-14T08:20:21;101061.00;;;29.30
38114;BMP180;23926;53.222;6.354;2022-08-14T08:22:49;101077.00;;;29.40
38114;BMP180;23926;53.222;6.354;2022-08-14T08:25:24;101073.00;;;29.50
38114;BMP180;23926;53.222;6.354;2022-08-14T08:28:04;101064.00;;;29.50
38114;BMP180;23926;53.222;6.354;2022-08-14T08:30:35;101066.00;;;29.60
38114;BMP180;23926;53.222;6.354;2022-08-14T08:33:02;101071.00;;;29.80
38114;BMP180;23926;53.222;6.354;2022-08-14T08:35:34;101064.00;;;29.80
38114;BMP180;23926;53.222;6.354;2022-08-14T08:38:22;101067.00;;;29.90
38114;BMP180;23926;53.222;6.354;2022-08-14T08:40:49;101060.00;;;30.00
38114;BMP180;23926;53.222;6.354;2022-08-14T08:45:40;101054.00;;;30.20
38114;BMP180;23926;53.222;6.354;2022-08-14T08:48:05;101050.00;;;30.20
38114;BMP180;23926;53.222;6.354;2022-08-14T08:50:37;101045.00;;;30.30
38114;BMP180;23926;53.222;6.354;2022-08-14T08:53:09;101042.00;;;30.30
38114;BMP180;23926;53.222;6.354;2022-08-14T08:55:39;101048.00;;;30.30
38114;BMP180;23926;53.222;6.354;2022-08-14T08:58:07;101050.00;;;30.40
38114;BMP180;23926;53.222;6.354;2022-08-14T09:00:35;101050.00;;;30.40
38114;BMP180;23926;53.222;6.354;2022-08-14T09:03:10;101040.00;;;30.50
38114;BMP180;23926;53.222;6.354;2022-08-14T09:05:38;101042.00;;;30.50
38114;BMP180;23926;53.222;6.354;2022-08-14T09:08:21;101046.00;;;30.60
38114;BMP180;23926;53.222;6.354;2022-08-14T09:10:49;101051.00;;;30.60
38114;BMP180;23926;53.222;6.354;2022-08-14T09:13:14;101043.00;;;30.70
38114;BMP180;23926;53.222;6.354;2022-08-14T09:15:42;101037.00;;;30.70
38114;BMP180;23926;53.222;6.354;2022-08-14T09:18:09;101035.00;;;30.70
38114;BMP180;23926;53.222;6.354;2022-08-14T09:20:37;101025.00;;;30.70
38114;BMP180;23926;53.222;6.354;2022-08-14T09:23:03;101028.00;;;30.80
38114;BMP180;23926;53.222;6.354;2022-08-14T09:25:30;101038.00;;;30.90
38114;BMP180;23926;53.222;6.354;2022-08-14T09:27:55;101032.00;;;30.90
38114;BMP180;23926;53.222;6.354;2022-08-14T09:30:21;101031.00;;;30.90
38114;BMP180;23926;53.222;6.354;2022-08-14T09:38:23;101028.00;;;31.20
38114;BMP180;23926;53.222;6.354;2022-08-14T09:41:17;101021.00;;;31.20
38114;BMP180;23926;53.222;6.354;2022-08-14T09:44:08;101011.00;;;31.20
38114;BMP180;23926;53.222;6.354;2022-08-14T09:46:37;101003.00;;;31.20
38114;BMP180;23926;53.222;6.354;2022-08-14T09:49:05;101012.00;;;31.20
38114;BMP180;23926;53.222;6.354;2022-08-14T09:51:32;101004.00;;;31.20
38114;BMP180;23926;53.222;6.354;2022-08-14T09:54:06;100997.00;;;31.30
38114;BMP180;23926;53.222;6.354;2022-08-14T09:57:01;100998.00;;;31.40
38114;BMP180;23926;53.222;6.354;2022-08-14T09:59:39;100998.00;;;31.50
38114;BMP180;23926;53.222;6.354;2022-08-14T10:02:23;101002.00;;;31.60
38114;BMP180;23926;53.222;6.354;2022-08-14T10:05:06;101002.00;;;31.60
38114;BMP180;23926;53.222;6.354;2022-08-14T10:07:45;100995.00;;;31.70
38114;BMP180;23926;53.222;6.354;2022-08-14T10:10:33;100979.00;;;31.70
38114;BMP180;23926;53.222;6.354;2022-08-14T10:13:03;100981.00;;;31.70
38114;BMP180;23926;53.222;6.354;2022-08-14T10:15:31;100983.00;;;31.70
38114;BMP180;23926;53.222;6.354;2022-08-14T10:18:14;100966.00;;;31.60
38114;BMP180;23926;53.222;6.354;2022-08-14T10:20:55;100967.00;;;31.60
38114;BMP180;23926;53.222;6.354;2022-08-14T10:23:27;100974.00;;;31.60
38114;BMP180;23926;53.222;6.354;2022-08-14T10:26:02;100962.00;;;31.60
38114;BMP180;23926;53.222;6.354;2022-08-14T10:28:41;100961.00;;;31.70
38114;BMP180;23926;53.222;6.354;2022-08-14T10:31:27;100953.00;;;31.80
38114;BMP180;23926;53.222;6.354;2022-08-14T10:34:17;100954.00;;;31.90
38114;BMP180;23926;53.222;6.354;2022-08-14T10:36:44;100957.00;;;31.80
38114;BMP180;23926;53.222;6.354;2022-08-14T10:39:18;100950.00;;;31.80
38114;BMP180;23926;53.222;6.354;2022-08-14T10:41:45;100963.00;;;31.70
38114;BMP180;23926;53.222;6.354;2022-08-14T10:44:13;100949.00;;;31.90
38114;BMP180;23926;53.222;6.354;2022-08-14T10:49:28;100945.00;;;32.00
38114;BMP180;23926;53.222;6.354;2022-08-14T10:52:08;100937.00;;;32.00
38114;BMP180;23926;53.222;6.354;2022-08-14T10:54:43;100934.00;;;32.00
38114;BMP180;23926;53.222;6.354;2022-08-14T11:00:11;100915.00;;;32.00
38114;BMP180;23926;53.222;6.354;2022-08-14T11:02:38;100916.00;;;32.10
38114;BMP180;23926;53.222;6.354;2022-08-14T11:05:16;100914.00;;;32.00
38114;BMP180;23926;53.222;6.354;2022-08-14T11:10:22;100907.00;;;32.10
38114;BMP180;23926;53.222;6.354;2022-08-14T11:12:51;100914.00;;;32.20
38114;BMP180;23926;53.222;6.354;2022-08-14T11:15:21;100908.00;;;32.20
38114;BMP180;23926;53.222;6.354;2022-08-14T11:17:48;100903.00;;;32.10
38114;BMP180;23926;53.222;6.354;2022-08-14T11:20:16;100910.00;;;32.20
38114;BMP180;23926;53.222;6.354;2022-08-14T11:22:42;100898.00;;;32.30
38114;BMP180;23926;53.222;6.354;2022-08-14T11:25:13;100893.00;;;32.40
38114;BMP180;23926;53.222;6.354;2022-08-14T11:27:42;100900.00;;;32.60
38114;BMP180;23926;53.222;6.354;2022-08-14T11:30:13;100887.00;;;32.60
38114;BMP180;23926;53.222;6.354;2022-08-14T11:32:47;100888.00;;;32.60
38114;BMP180;23926;53.222;6.354;2022-08-14T11:35:14;100879.00;;;32.70
38114;BMP180;23926;53.222;6.354;2022-08-14T11:38:00;100872.00;;;32.70
38114;BMP180;23926;53.222;6.354;2022-08-14T11:40:28;100873.00;;;32.70
38114;BMP180;23926;53.222;6.354;2022-08-14T11:42:55;100883.00;;;32.70
38114;BMP180;23926;53.222;6.354;2022-08-14T11:45:26;100878.00;;;32.60
38114;BMP180;23926;53.222;6.354;2022-08-14T11:47:54;100876.00;;;32.70
38114;BMP180;23926;53.222;6.354;2022-08-14T11:50:25;100869.00;;;32.70
38114;BMP180;23926;53.222;6.354;2022-08-14T11:52:51;100872.00;;;32.90
38114;BMP180;23926;53.222;6.354;2022-08-14T11:55:19;100863.00;;;33.00
38114;BMP180;23926;53.222;6.354;2022-08-14T11:57:45;100857.00;;;32.90
38114;BMP180;23926;53.222;6.354;2022-08-14T12:00:13;100854.00;;;33.00
38114;BMP180;23926;53.222;6.354;2022-08-14T12:02:58;100853.00;;;33.10
38114;BMP180;23926;53.222;6.354;2022-08-14T12:05:31;100858.00;;;33.20
38114;BMP180;23926;53.222;6.354;2022-08-14T12:07:58;100859.00;;;33.30
38114;BMP180;23926;53.222;6.354;2022-08-14T12:10:25;100851.00;;;33.20
38114;BMP180;23926;53.222;6.354;2022-08-14T12:12:50;100844.00;;;33.30
38114;BMP180;23926;53.222;6.354;2022-08-14T12:15:28;100839.00;;;33.50
38114;BMP180;23926;53.222;6.354;2022-08-14T12:17:54;100850.00;;;33.50
38114;BMP180;23926;53.222;6.354;2022-08-14T12:20:29;100852.00;;;33.40
38114;BMP180;23926;53.222;6.354;2022-08-14T12:22:54;100843.00;;;33.30
38114;BMP180;23926;53.222;6.354;2022-08-14T12:25:22;100844.00;;;33.40
38114;BMP180;23926;53.222;6.354;2022-08-14T12:27:49;100844.00;;;33.30
38114;BMP180;23926;53.222;6.354;2022-08-14T12:33:01;100839.00;;;33.40
38114;BMP180;23926;53.222;6.354;2022-08-14T12:35:39;100828.00;;;33.50
38114;BMP180;23926;53.222;6.354;2022-08-14T12:38:05;100817.00;;;33.50
38114;BMP180;23926;53.222;6.354;2022-08-14T12:40:30;100824.00;;;33.30
38114;BMP180;23926;53.222;6.354;2022-08-14T12:43:02;100810.00;;;33.20
38114;BMP180;23926;53.222;6.354;2022-08-14T12:45:30;100808.00;;;33.10
38114;BMP180;23926;53.222;6.354;2022-08-14T12:48:03;100803.00;;;32.90
38114;BMP180;23926;53.222;6.354;2022-08-14T12:50:40;100804.00;;;32.80
38114;BMP180;23926;53.222;6.354;2022-08-14T12:53:07;100815.00;;;32.80
38114;BMP180;23926;53.222;6.354;2022-08-14T12:55:34;100802.00;;;33.00
38114;BMP180;23926;53.222;6.354;2022-08-14T12:58:01;100797.00;;;33.20
38114;BMP180;23926;53.222;6.354;2022-08-14T13:00:31;100804.00;;;33.20
38114;BMP180;23926;53.222;6.354;2022-08-14T13:02:57;100797.00;;;33.10
38114;BMP180;23926;53.222;6.354;2022-08-14T13:05:25;100792.00;;;33.20
38114;BMP180;23926;53.222;6.354;2022-08-14T13:07:52;100791.00;;;33.40
38114;BMP180;23926;53.222;6.354;2022-08-14T13:10:20;100793.00;;;33.60
38114;BMP180;23926;53.222;6.354;2022-08-14T13:12:47;100789.00;;;33.60
38114;BMP180;23926;53.222;6.354;2022-08-14T13:15:14;100783.00;;;33.70
38114;BMP180;23926;53.222;6.354;2022-08-14T13:17:42;100790.00;;;33.80
38114;BMP180;23926;53.222;6.354;2022-08-14T13:20:09;100788.00;;;34.10
38114;BMP180;23926;53.222;6.354;2022-08-14T13:22:36;100782.00;;;34.30
38114;BMP180;23926;53.222;6.354;2022-08-14T13:25:04;100781.00;;;34.40
38114;BMP180;23926;53.222;6.354;2022-08-14T13:27:31;100771.00;;;34.20
38114;BMP180;23926;53.222;6.354;2022-08-14T13:29:58;100768.00;;;34.20
38114;BMP180;23926;53.222;6.354;2022-08-14T13:32:25;100777.00;;;34.30
38114;BMP180;23926;53.222;6.354;2022-08-14T13:34:53;100768.00;;;34.30
38114;BMP180;23926;53.222;6.354;2022-08-14T13:37:18;100767.00;;;34.50
38114;BMP180;23926;53.222;6.354;2022-08-14T13:39:49;100766.00;;;34.60
38114;BMP180;23926;53.222;6.354;2022-08-14T13:42:16;100767.00;;;34.50
38114;BMP180;23926;53.222;6.354;2022-08-14T13:44:43;100754.00;;;34.30
38114;BMP180;23926;53.222;6.354;2022-08-14T13:47:10;100750.00;;;34.40
38114;BMP180;23926;53.222;6.354;2022-08-14T13:49:36;100754.00;;;34.40
38114;BMP180;23926;53.222;6.354;2022-08-14T13:52:02;100750.00;;;34.50
38114;BMP180;23926;53.222;6.354;2022-08-14T13:54:29;100743.00;;;34.50
38114;BMP180;23926;53.222;6.354;2022-08-14T13:56:59;100741.00;;;34.50
38114;BMP180;23926;53.222;6.354;2022-08-14T13:59:28;100738.00;;;34.30
38114;BMP180;23926;53.222;6.354;2022-08-14T14:01:55;100722.00;;;34.10
38114;BMP180;23926;53.222;6.354;2022-08-14T14:04:22;100713.00;;;34.20
38114;BMP180;23926;53.222;6.354;2022-08-14T14:06:49;100723.00;;;34.40
38114;BMP180;23926;53.222;6.354;2022-08-14T14:09:25;100713.00;;;34.70
38114;BMP180;23926;53.222;6.354;2022-08-14T14:11:52;100714.00;;;34.90
38114;BMP180;23926;53.222;6.354;2022-08-14T14:14:20;100710.00;;;35.00
38114;BMP180;23926;53.222;6.354;2022-08-14T14:16:45;100701.00;;;34.90
38114;BMP180;23926;53.222;6.354;2022-08-14T14:19:18;100709.00;;;35.10
38114;BMP180;23926;53.222;6.354;2022-08-14T14:21:44;100706.00;;;35.20
38114;BMP180;23926;53.222;6.354;2022-08-14T14:24:10;100699.00;;;35.40
38114;BMP180;23926;53.222;6.354;2022-08-14T14:26:35;100702.00;;;35.40